Jamaica Plain, MA (02130)

3:09 AM EDT on August 05, 2015 (GMT -0400)
KMAJAMAI4 | | Change Station
CLOSE
Current Station
Personal Weather Station
Location: (Arnold Arboretum ) Roslindale, MA
Elevation: 148 ft
Nearby Weather Stations

Elev 148 ft 42.30 °N, 71.13 °W | Updated 10 minutes ago

Clear
Clear
64.3 °F
Feels Like 64.3 °F
N
0.0
Wind Variable Wind from WSW
Gusts 0.0 mph

Today
High -- | Low -- °F
--% Chance of Precip.
Yesterday
High -- | Low -- °F
Precip. -- in
5:41 AM 7:59 PM
Waning Gibbous, 70% visible
Pressure 29.89 in
Visibility 6.0 miles
Clouds Few 200 ft
Dew Point 64 °F
Humidity 98%
Rainfall -999.00 in
Snow Depth Not available.
UV 0 out of 12
Pollen 5.70 out of 12
Air Quality Not available.
Flu Activity Not available.
METAR KOWD 050653Z AUTO 00000KT 6SM BR FEW002 16/15 A2989 RMK AO2 SLP121 T01560150 $

More Conditions Fewer Conditions

Pressure 29.89 in
Visibility 6.0 miles
Clouds Few 200 ft
Dew Point 64 °F
Humidity 98%
Rainfall -999.00 in
Snow Depth Not available.
UV 0 out of 12
Pollen 5.70 out of 12
Air Quality Not available.
Flu Activity Not available.
METAR KOWD 050653Z AUTO 00000KT 6SM BR FEW002 16/15 A2989 RMK AO2 SLP121 T01560150 $

More Conditions Fewer Conditions

10-Day Weather Forecast

×

Almanac

Astronomy

Aug. 05, 2015 Rise Set
Actual Time
Civil Twilight
Nautical Twilight
Astronomical Twilight
Moon
Length of Visible Light
Length of Day
Tomorrow will be .
, % of the Moon is Illuminated

Today's Extremes

State Highs State Lows

Community

WunderPhotos

Upload Photos

1,844,105 photos uploaded!

WunderBlogs® & News

Nearby

Air Quality

  Air Quality AQ Index Pollutant
Not available.

Snow Depth

Station Depth Elevation

Earthquake Activity

City Distance Mag. Time & Date
Minimum magnitude displayed is 2.5.

Coastal Water Temperatures

Place Temperature

Stations

Nearby Weather Stations

Station Location Temp. Windchill Dew Point Humidity Wind Precip. Elev Updated Type